createdAt,value
2023-06-21T00:00:01.951Z,22.42
2023-06-21T00:02:32.642Z,22.31
2023-06-21T00:05:00.085Z,22.33
2023-06-21T00:07:27.234Z,22.31
2023-06-21T00:09:54.388Z,22.24
2023-06-21T00:12:23.256Z,22.26
2023-06-21T00:14:50.391Z,22.13
2023-06-21T00:17:17.628Z,22.11
2023-06-21T00:19:45.126Z,22.11
2023-06-21T00:22:12.244Z,22.13
2023-06-21T00:24:39.495Z,22.11
2023-06-21T00:27:07.131Z,22.07
2023-06-21T00:29:34.234Z,22.07
2023-06-21T00:32:02.194Z,22.02
2023-06-21T00:34:29.616Z,22.00
2023-06-21T00:36:56.819Z,21.95
2023-06-21T00:39:25.073Z,22.07
2023-06-21T00:41:52.453Z,22.01
2023-06-21T00:44:20.015Z,21.99
2023-06-21T00:46:47.501Z,21.96
2023-06-21T00:49:14.962Z,21.95
2023-06-21T00:51:42.611Z,21.85
2023-06-21T00:54:17.280Z,21.82
2023-06-21T00:56:45.345Z,21.74
2023-06-21T00:59:13.092Z,21.74
2023-06-21T01:01:40.323Z,21.77
2023-06-21T01:04:11.880Z,21.61
2023-06-21T01:06:50.099Z,21.49
2023-06-21T01:09:53.661Z,21.53
2023-06-21T01:12:45.494Z,21.45
2023-06-21T01:15:17.895Z,21.44
2023-06-21T01:17:46.687Z,21.42
2023-06-21T01:20:16.032Z,21.39
2023-06-21T01:23:16.756Z,21.22
2023-06-21T01:26:21.141Z,21.21
2023-06-21T01:28:57.056Z,21.18
2023-06-21T01:31:24.687Z,21.11
2023-06-21T01:33:52.248Z,21.02
2023-06-21T01:36:19.702Z,21.02
2023-06-21T01:38:47.067Z,20.96
2023-06-21T01:41:14.170Z,21.02
2023-06-21T01:43:41.233Z,20.96
2023-06-21T01:46:09.118Z,20.90
2023-06-21T01:48:38.545Z,20.80
2023-06-21T01:51:06.015Z,20.72
2023-06-21T01:53:34.847Z,20.76
2023-06-21T01:56:09.648Z,20.69
2023-06-21T01:58:37.513Z,20.62
2023-06-21T02:01:04.914Z,20.67
2023-06-21T02:03:33.016Z,20.60
2023-06-21T02:06:04.642Z,20.70
2023-06-21T02:08:33.884Z,20.60
2023-06-21T02:11:02.310Z,20.58
2023-06-21T02:13:30.049Z,20.55
2023-06-21T02:15:57.267Z,20.55
2023-06-21T02:18:25.675Z,20.49
2023-06-21T02:20:53.601Z,20.39
2023-06-21T02:23:20.791Z,20.36
2023-06-21T02:25:47.954Z,20.25
2023-06-21T02:28:17.621Z,20.21
2023-06-21T02:30:45.060Z,20.29
2023-06-21T02:33:12.310Z,20.38
2023-06-21T02:35:39.782Z,20.32
2023-06-21T02:38:07.652Z,20.20
2023-06-21T02:40:34.832Z,20.23
2023-06-21T02:43:02.243Z,20.20
2023-06-21T02:45:29.369Z,20.14
2023-06-21T02:47:56.582Z,20.12
2023-06-21T02:50:24.118Z,19.99
2023-06-21T02:52:51.250Z,19.94
2023-06-21T02:55:19.867Z,19.99
2023-06-21T02:57:49.422Z,19.97
2023-06-21T03:00:23.709Z,19.99
2023-06-21T03:02:51.864Z,19.94
2023-06-21T03:05:19.265Z,19.99
2023-06-21T03:07:47.698Z,20.03
2023-06-21T03:10:15.843Z,20.03
2023-06-21T03:12:44.166Z,20.02
2023-06-21T03:15:12.392Z,20.09
2023-06-21T03:17:40.561Z,20.10
2023-06-21T03:20:13.387Z,20.19
2023-06-21T03:22:45.041Z,20.27
2023-06-21T03:25:14.112Z,20.42
2023-06-21T03:27:42.291Z,20.53
2023-06-21T03:30:14.000Z,20.63
2023-06-21T03:32:48.666Z,20.66
2023-06-21T03:35:17.535Z,20.80
2023-06-21T03:37:47.493Z,20.88
2023-06-21T03:40:16.575Z,21.02
2023-06-21T03:42:44.615Z,21.04
2023-06-21T03:45:13.832Z,21.01
2023-06-21T03:47:43.346Z,21.00
2023-06-21T03:50:11.239Z,20.90
2023-06-21T03:52:39.716Z,20.90
2023-06-21T03:55:07.912Z,20.95
2023-06-21T03:57:35.099Z,21.01
2023-06-21T04:00:07.949Z,21.05
2023-06-21T04:02:43.090Z,21.09
2023-06-21T04:05:11.793Z,21.14
2023-06-21T04:07:39.602Z,21.17
2023-06-21T04:10:09.830Z,21.18
2023-06-21T04:12:37.488Z,21.27
2023-06-21T04:15:06.626Z,21.32
2023-06-21T04:17:34.297Z,21.45
2023-06-21T04:20:08.465Z,21.56
2023-06-21T04:22:35.654Z,21.72
2023-06-21T04:25:06.108Z,21.86
2023-06-21T04:27:33.628Z,21.99
2023-06-21T04:30:00.831Z,22.22
2023-06-21T04:32:33.634Z,22.28
2023-06-21T04:35:02.401Z,22.41
2023-06-21T04:37:30.165Z,22.55
2023-06-21T04:40:08.206Z,22.73
2023-06-21T04:42:45.465Z,22.84
2023-06-21T04:45:17.677Z,23.08
2023-06-21T04:47:47.815Z,23.32
2023-06-21T04:50:21.689Z,23.32
2023-06-21T04:52:51.060Z,23.46
2023-06-21T04:55:19.875Z,23.62
2023-06-21T04:57:48.442Z,23.81
2023-06-21T05:00:16.337Z,24.01
2023-06-21T05:02:45.994Z,24.11
2023-06-21T05:05:13.129Z,24.05
2023-06-21T05:07:40.668Z,24.05
2023-06-21T05:10:09.236Z,23.97
2023-06-21T05:12:37.175Z,23.82
2023-06-21T05:15:06.652Z,23.98
2023-06-21T05:17:34.988Z,24.13
2023-06-21T05:20:05.825Z,24.08
2023-06-21T05:22:34.595Z,24.13
2023-06-21T05:25:03.617Z,24.23
2023-06-21T05:27:33.964Z,24.24
2023-06-21T05:30:01.367Z,24.43
2023-06-21T05:32:28.489Z,24.70
2023-06-21T05:34:55.747Z,24.84
2023-06-21T05:37:23.817Z,25.01
2023-06-21T05:39:52.009Z,24.97
2023-06-21T05:42:19.287Z,25.00
2023-06-21T05:44:46.652Z,25.04
2023-06-21T05:47:15.361Z,25.00
2023-06-21T05:49:42.484Z,25.02
2023-06-21T05:52:10.128Z,25.30
2023-06-21T05:54:42.737Z,25.52
2023-06-21T05:57:10.683Z,25.69
2023-06-21T05:59:38.168Z,25.66
2023-06-21T06:02:07.100Z,25.47
2023-06-21T06:04:34.754Z,25.56
2023-06-21T06:07:01.818Z,25.73
2023-06-21T06:09:28.899Z,26.12
2023-06-21T06:11:58.317Z,26.18
2023-06-21T06:14:25.396Z,25.82
2023-06-21T06:16:52.520Z,25.96
2023-06-21T06:19:19.910Z,26.23
2023-06-21T06:21:48.698Z,26.20
2023-06-21T06:24:15.799Z,26.37
2023-06-21T06:26:43.165Z,26.26
2023-06-21T06:29:10.171Z,26.31
2023-06-21T06:31:37.196Z,26.47
2023-06-21T06:34:04.581Z,26.64
2023-06-21T06:36:31.634Z,26.71
2023-06-21T06:38:58.702Z,26.89
2023-06-21T06:41:26.077Z,26.95
2023-06-21T06:43:53.393Z,27.01
2023-06-21T06:46:21.104Z,26.84
2023-06-21T06:48:48.514Z,26.92
2023-06-21T06:51:15.667Z,27.12
2023-06-21T06:53:43.221Z,27.12
2023-06-21T06:56:10.814Z,27.33
2023-06-21T06:58:37.868Z,27.37
2023-06-21T07:01:06.466Z,27.24
2023-06-21T07:03:34.509Z,27.21
2023-06-21T07:06:01.863Z,27.46
2023-06-21T07:08:28.995Z,27.36
2023-06-21T07:10:56.438Z,27.60
2023-06-21T07:13:25.206Z,27.78
2023-06-21T07:15:52.274Z,28.03
2023-06-21T07:18:19.721Z,28.10
2023-06-21T07:20:46.836Z,28.12
2023-06-21T07:23:14.067Z,28.13
2023-06-21T07:25:41.620Z,28.15
2023-06-21T07:28:08.670Z,28.22
2023-06-21T07:30:35.854Z,28.38
2023-06-21T07:33:04.657Z,28.42
2023-06-21T07:35:31.771Z,28.35
2023-06-21T07:37:58.958Z,28.38
2023-06-21T07:40:26.678Z,28.59
2023-06-21T07:42:53.903Z,28.63
2023-06-21T07:45:21.011Z,28.65
2023-06-21T07:47:49.783Z,28.76
2023-06-21T07:50:22.675Z,28.74
2023-06-21T07:52:50.940Z,28.81
2023-06-21T07:55:18.267Z,28.84
2023-06-21T07:57:45.382Z,28.97
2023-06-21T08:00:14.170Z,28.83
2023-06-21T08:02:45.639Z,29.08
2023-06-21T08:05:15.162Z,29.37
2023-06-21T08:07:43.102Z,29.14
2023-06-21T08:10:10.890Z,29.31
2023-06-21T08:12:38.461Z,29.91
2023-06-21T08:15:06.759Z,30.27
2023-06-21T08:17:34.094Z,30.67
2023-06-21T08:20:01.302Z,30.69
2023-06-21T08:22:29.732Z,30.76
2023-06-21T08:24:57.601Z,30.93
2023-06-21T08:27:24.794Z,30.88
2023-06-21T08:29:52.280Z,30.60
2023-06-21T08:32:21.022Z,30.34
2023-06-21T08:34:48.420Z,30.16
2023-06-21T08:37:15.923Z,30.04
2023-06-21T08:39:43.047Z,30.31
2023-06-21T08:42:10.887Z,30.46
2023-06-21T08:44:38.424Z,30.69
2023-06-21T08:47:05.926Z,30.75
2023-06-21T08:49:35.690Z,30.94
2023-06-21T08:52:04.419Z,31.11
2023-06-21T08:54:31.558Z,31.15
2023-06-21T08:57:21.956Z,31.31
2023-06-21T08:59:52.260Z,31.19
2023-06-21T09:02:56.683Z,30.79
2023-06-21T09:05:30.972Z,30.97
2023-06-21T09:07:59.645Z,30.70
2023-06-21T09:10:29.593Z,30.37
2023-06-21T09:12:58.275Z,30.49
2023-06-21T09:15:26.315Z,30.73
2023-06-21T09:17:57.807Z,31.00
2023-06-21T09:20:29.620Z,31.08
2023-06-21T09:23:03.118Z,30.93
2023-06-21T09:25:30.099Z,30.92
2023-06-21T09:27:58.110Z,30.66
2023-06-21T09:32:55.543Z,30.10
2023-06-21T09:35:23.970Z,29.75
2023-06-21T09:37:51.142Z,29.76
2023-06-21T09:40:18.525Z,29.78
2023-06-21T09:42:46.442Z,30.19
2023-06-21T09:45:18.214Z,30.43
2023-06-21T09:47:46.320Z,30.56
2023-06-21T09:50:13.633Z,30.62
2023-06-21T09:52:46.255Z,30.67
2023-06-21T09:55:17.715Z,30.85
2023-06-21T09:57:45.377Z,30.97
2023-06-21T10:00:14.133Z,31.04
2023-06-21T10:02:43.507Z,31.24
2023-06-21T10:05:17.710Z,31.34
2023-06-21T10:07:48.318Z,31.44
2023-06-21T10:10:15.753Z,31.54
2023-06-21T10:12:55.713Z,31.63
2023-06-21T10:15:24.661Z,31.35
2023-06-21T10:20:26.481Z,31.42
2023-06-21T10:22:54.341Z,31.37
2023-06-21T10:25:21.728Z,31.55
2023-06-21T10:27:52.020Z,31.66
2023-06-21T10:30:20.903Z,31.80
2023-06-21T10:32:48.731Z,31.90
2023-06-21T10:35:18.186Z,31.69
2023-06-21T10:37:49.635Z,31.39
2023-06-21T10:40:18.560Z,31.16
2023-06-21T10:42:46.920Z,31.27
2023-06-21T10:45:14.378Z,31.61
2023-06-21T10:47:42.291Z,31.69
2023-06-21T10:50:10.620Z,31.72
2023-06-21T10:52:38.285Z,31.35
2023-06-21T10:55:06.229Z,31.47
2023-06-21T10:57:35.336Z,31.65
2023-06-21T11:00:07.547Z,31.99
2023-06-21T11:02:35.698Z,31.71
2023-06-21T11:05:20.565Z,31.66
2023-06-21T11:07:51.597Z,31.82
2023-06-21T11:10:22.847Z,32.29
2023-06-21T11:12:56.070Z,32.83
2023-06-21T11:15:24.017Z,32.49
2023-06-21T11:18:11.471Z,32.51
2023-06-21T11:20:46.426Z,32.02
2023-06-21T11:23:23.170Z,31.68
2023-06-21T11:25:51.576Z,31.56
2023-06-21T11:28:19.993Z,31.90
2023-06-21T11:31:07.232Z,32.05
2023-06-21T11:33:56.811Z,31.99
2023-06-21T11:36:32.656Z,32.40
2023-06-21T11:39:05.982Z,32.32
2023-06-21T11:41:45.106Z,32.25
2023-06-21T11:44:23.492Z,32.53
2023-06-21T11:46:51.157Z,32.49
2023-06-21T11:49:18.649Z,32.51
2023-06-21T11:51:56.592Z,32.73
2023-06-21T11:54:35.345Z,32.96
2023-06-21T11:57:08.888Z,32.81
2023-06-21T11:59:37.152Z,32.68
2023-06-21T12:02:17.992Z,32.59
2023-06-21T12:04:45.963Z,33.00
2023-06-21T12:07:13.289Z,33.24
2023-06-21T12:09:40.707Z,33.02
2023-06-21T12:12:10.852Z,33.23
2023-06-21T12:14:38.851Z,33.45
2023-06-21T12:17:06.284Z,33.69
2023-06-21T12:19:33.924Z,33.77
2023-06-21T12:22:04.461Z,33.60
2023-06-21T12:24:33.631Z,33.63
2023-06-21T12:27:04.778Z,33.33
2023-06-21T12:29:32.001Z,33.28
2023-06-21T12:31:59.389Z,33.50
2023-06-21T12:34:26.919Z,33.70
2023-06-21T12:36:56.413Z,34.08
2023-06-21T12:39:24.215Z,33.90
2023-06-21T12:41:51.779Z,34.12
2023-06-21T12:44:27.440Z,34.42
2023-06-21T12:46:54.989Z,34.42
2023-06-21T12:49:22.088Z,34.40
2023-06-21T12:51:49.534Z,34.60
2023-06-21T12:54:19.487Z,34.61
2023-06-21T12:56:50.975Z,34.77
2023-06-21T12:59:19.322Z,35.00
2023-06-21T13:01:49.011Z,34.93
2023-06-21T13:04:17.091Z,34.76
2023-06-21T13:06:44.710Z,35.04
2023-06-21T13:09:12.613Z,34.89
2023-06-21T13:11:40.306Z,34.89
2023-06-21T13:14:08.525Z,34.75
2023-06-21T13:16:36.239Z,34.45
2023-06-21T13:19:03.343Z,34.26
2023-06-21T13:21:31.914Z,34.05
2023-06-21T13:24:01.436Z,33.74
2023-06-21T13:26:28.981Z,34.20
2023-06-21T13:28:56.444Z,34.30
2023-06-21T13:31:24.929Z,34.09
2023-06-21T13:33:54.380Z,34.15
2023-06-21T13:36:22.060Z,34.48
2023-06-21T13:38:49.168Z,34.63
2023-06-21T13:41:16.359Z,34.51
2023-06-21T13:43:45.361Z,34.51
2023-06-21T13:46:12.785Z,34.55
2023-06-21T13:48:40.113Z,34.53
2023-06-21T13:51:07.514Z,34.54
2023-06-21T13:53:34.610Z,34.95
2023-06-21T13:56:03.002Z,35.21
2023-06-21T13:58:31.018Z,35.40
2023-06-21T14:00:58.225Z,35.56
2023-06-21T14:03:25.915Z,35.61
2023-06-21T14:05:53.272Z,35.59
2023-06-21T14:08:23.221Z,35.10
2023-06-21T14:10:50.814Z,35.40
2023-06-21T14:13:20.695Z,35.48
2023-06-21T14:15:49.580Z,35.53
2023-06-21T14:18:17.160Z,35.06
2023-06-21T14:20:44.385Z,34.71
2023-06-21T14:23:11.643Z,34.71
2023-06-21T14:25:40.241Z,34.96
2023-06-21T14:28:07.600Z,35.11
2023-06-21T14:30:34.716Z,35.63
2023-06-21T14:33:08.570Z,35.42
2023-06-21T14:35:36.235Z,35.71
2023-06-21T14:38:05.078Z,36.20
2023-06-21T14:40:32.523Z,36.11
2023-06-21T14:42:59.676Z,36.26
2023-06-21T14:45:27.123Z,36.20
2023-06-21T14:47:55.709Z,35.82
2023-06-21T14:50:23.173Z,36.08
2023-06-21T14:52:51.610Z,35.93
2023-06-21T14:55:19.035Z,36.06
2023-06-21T14:57:46.240Z,36.09
2023-06-21T15:00:14.101Z,35.96
2023-06-21T15:02:42.990Z,35.80
2023-06-21T15:05:10.346Z,35.93
2023-06-21T15:07:38.000Z,36.01
2023-06-21T15:10:05.529Z,36.34
2023-06-21T15:12:32.573Z,36.46
2023-06-21T15:14:59.924Z,36.43
2023-06-21T15:17:26.979Z,36.67
2023-06-21T15:19:54.067Z,36.66
2023-06-21T15:22:21.477Z,36.62
2023-06-21T15:24:48.521Z,37.18
2023-06-21T15:27:15.547Z,36.74
2023-06-21T15:29:43.674Z,36.86
2023-06-21T15:32:10.824Z,36.55
2023-06-21T15:34:37.916Z,36.40
2023-06-21T15:37:05.511Z,36.75
2023-06-21T15:39:32.774Z,37.07
2023-06-21T15:41:59.803Z,36.88
2023-06-21T15:44:27.163Z,37.02
2023-06-21T15:46:54.243Z,37.69
2023-06-21T15:49:21.401Z,38.22
2023-06-21T15:51:48.787Z,38.07
2023-06-21T15:54:15.804Z,38.24
2023-06-21T15:56:42.885Z,38.29
2023-06-21T15:59:10.265Z,38.58
2023-06-21T16:01:37.405Z,38.12
2023-06-21T16:04:05.059Z,38.24
2023-06-21T16:06:32.102Z,38.61
2023-06-21T16:08:59.239Z,39.25
2023-06-21T16:11:26.746Z,39.36
2023-06-21T16:13:53.753Z,38.71
2023-06-21T16:16:20.734Z,39.27
2023-06-21T16:18:50.284Z,39.16
2023-06-21T16:21:17.309Z,39.20
2023-06-21T16:23:44.340Z,39.18
2023-06-21T16:26:11.710Z,39.20
2023-06-21T16:28:38.997Z,39.38
2023-06-21T16:31:08.665Z,39.53
2023-06-21T16:33:36.078Z,39.71
2023-06-21T16:36:03.554Z,39.95
2023-06-21T16:38:30.769Z,40.20
2023-06-21T16:40:58.169Z,40.01
2023-06-21T16:43:25.185Z,39.11
2023-06-21T16:45:52.649Z,38.61
2023-06-21T16:48:20.133Z,38.97
2023-06-21T16:50:47.341Z,39.36
2023-06-21T16:53:14.631Z,39.33
2023-06-21T16:55:42.113Z,39.32
2023-06-21T16:58:09.301Z,38.15
2023-06-21T17:00:36.330Z,37.43
2023-06-21T17:03:04.970Z,36.78
2023-06-21T17:05:32.561Z,36.28
2023-06-21T17:07:59.811Z,36.03
2023-06-21T17:10:27.276Z,35.46
2023-06-21T17:12:54.566Z,35.00
2023-06-21T17:15:21.887Z,34.43
2023-06-21T17:17:49.420Z,34.58
2023-06-21T17:20:16.729Z,35.39
2023-06-21T17:22:44.005Z,35.94
2023-06-21T17:25:12.248Z,36.46
2023-06-21T17:27:39.413Z,36.04
2023-06-21T17:30:07.052Z,35.31
2023-06-21T17:32:34.641Z,34.72
2023-06-21T17:35:01.974Z,34.15
2023-06-21T17:37:29.145Z,33.73
2023-06-21T17:39:57.619Z,33.26
2023-06-21T17:42:24.767Z,32.86
2023-06-21T17:44:51.947Z,32.31
2023-06-21T17:47:19.434Z,31.85
2023-06-21T17:49:46.619Z,31.13
2023-06-21T17:52:13.732Z,30.95
2023-06-21T17:54:41.141Z,30.62
2023-06-21T17:57:09.045Z,30.47
2023-06-21T17:59:36.177Z,30.32
2023-06-21T18:02:03.747Z,30.21
2023-06-21T18:04:31.224Z,30.04
2023-06-21T18:06:58.354Z,29.87
2023-06-21T18:09:25.476Z,29.74
2023-06-21T18:11:52.940Z,29.56
2023-06-21T18:14:20.036Z,29.31
2023-06-21T18:16:47.164Z,29.13
2023-06-21T18:19:14.566Z,28.94
2023-06-21T18:21:42.334Z,28.78
2023-06-21T18:24:13.490Z,28.58
2023-06-21T18:26:41.018Z,28.43
2023-06-21T18:29:08.053Z,28.26
2023-06-21T18:31:35.233Z,28.18
2023-06-21T18:34:02.707Z,27.99
2023-06-21T18:36:29.768Z,27.94
2023-06-21T18:38:56.804Z,27.84
2023-06-21T18:41:24.630Z,27.78
2023-06-21T18:43:51.691Z,27.61
2023-06-21T18:46:18.915Z,27.38
2023-06-21T18:48:48.598Z,27.31
2023-06-21T18:51:16.011Z,27.25
2023-06-21T18:53:43.144Z,27.20
2023-06-21T18:56:10.779Z,27.12
2023-06-21T18:58:38.653Z,27.01
2023-06-21T19:01:05.880Z,26.97
2023-06-21T19:03:33.453Z,26.89
2023-06-21T19:06:00.637Z,26.81
2023-06-21T19:08:27.810Z,26.70
2023-06-21T19:10:55.250Z,26.64
2023-06-21T19:13:22.366Z,26.47
2023-06-21T19:15:55.653Z,26.33
2023-06-21T19:18:23.206Z,26.35
2023-06-21T19:20:50.366Z,26.27
2023-06-21T19:23:17.492Z,26.11
2023-06-21T19:25:44.839Z,26.09
2023-06-21T19:28:12.020Z,25.95
2023-06-21T19:30:39.162Z,25.93
2023-06-21T19:33:06.589Z,25.94
2023-06-21T19:35:34.003Z,25.94
2023-06-21T19:38:01.112Z,25.90
2023-06-21T19:40:28.815Z,25.89
2023-06-21T19:42:56.268Z,25.82
2023-06-21T19:45:24.382Z,25.86
2023-06-21T19:47:51.906Z,25.80
2023-06-21T19:50:19.468Z,25.34
2023-06-21T19:52:46.549Z,24.16
2023-06-21T19:55:13.976Z,22.88
2023-06-21T19:57:41.135Z,21.87
2023-06-21T20:00:10.816Z,22.22
2023-06-21T20:02:39.877Z,22.32
2023-06-21T20:05:08.841Z,22.27
2023-06-21T20:07:36.905Z,22.26
2023-06-21T20:10:04.442Z,22.14
2023-06-21T20:12:31.867Z,22.17
2023-06-21T20:14:59.151Z,22.02
2023-06-21T20:17:26.432Z,21.95
2023-06-21T20:19:53.880Z,22.02
2023-06-21T20:22:21.209Z,21.69
2023-06-21T20:24:53.105Z,21.56
2023-06-21T20:27:20.524Z,21.62
2023-06-21T20:29:47.546Z,21.68
2023-06-21T20:32:15.542Z,21.79
2023-06-21T20:34:42.953Z,21.93
2023-06-21T20:37:10.081Z,21.85
2023-06-21T20:39:37.140Z,21.88
2023-06-21T20:42:04.747Z,21.82
2023-06-21T20:44:33.279Z,21.78
2023-06-21T20:47:00.716Z,21.80
2023-06-21T20:49:29.377Z,21.77
2023-06-21T20:51:56.543Z,21.78
2023-06-21T20:54:24.921Z,21.88
2023-06-21T20:56:52.849Z,21.96
2023-06-21T20:59:21.101Z,22.00
2023-06-21T21:01:51.963Z,22.06
2023-06-21T21:04:20.484Z,22.01
2023-06-21T21:06:47.880Z,21.95
2023-06-21T21:09:16.109Z,21.99
2023-06-21T21:11:43.576Z,21.99
2023-06-21T21:14:10.735Z,21.94
2023-06-21T21:16:38.220Z,21.92
2023-06-21T21:19:05.958Z,22.04
2023-06-21T21:21:33.039Z,22.09
2023-06-21T21:24:00.997Z,22.10
2023-06-21T21:26:28.342Z,21.96
2023-06-21T21:28:55.473Z,21.91
2023-06-21T21:31:22.552Z,21.90
2023-06-21T21:33:50.051Z,21.91
2023-06-21T21:36:19.011Z,21.93
2023-06-21T21:38:46.246Z,21.94
2023-06-21T21:41:13.808Z,22.04
2023-06-21T21:43:40.919Z,22.04
2023-06-21T21:46:08.269Z,22.08
2023-06-21T21:48:35.863Z,22.05
2023-06-21T21:51:02.874Z,22.01
2023-06-21T21:53:29.860Z,21.95
2023-06-21T21:55:57.236Z,21.88
2023-06-21T21:58:24.319Z,21.86
2023-06-21T22:04:24.642Z,21.73
2023-06-21T22:06:53.553Z,21.72
2023-06-21T22:09:20.689Z,21.70
2023-06-21T22:11:47.802Z,21.74
2023-06-21T22:14:15.971Z,21.71
2023-06-21T22:16:43.009Z,21.71
2023-06-21T22:19:10.249Z,21.71
2023-06-21T22:21:37.728Z,21.74
2023-06-21T22:24:05.702Z,21.72
2023-06-21T22:26:32.826Z,21.76
2023-06-21T22:29:00.419Z,21.79
2023-06-21T22:31:28.094Z,21.84
2023-06-21T22:33:55.298Z,21.88
2023-06-21T22:36:23.132Z,21.91
2023-06-21T22:38:50.182Z,21.94
2023-06-21T22:41:17.736Z,21.93
2023-06-21T22:43:45.743Z,21.93
2023-06-21T22:46:12.811Z,21.89
2023-06-21T22:48:41.122Z,21.94
2023-06-21T22:51:08.563Z,21.97
2023-06-21T22:53:35.696Z,21.98
2023-06-21T22:56:02.826Z,21.95
2023-06-21T22:58:30.218Z,21.94
2023-06-21T23:00:57.314Z,21.88
2023-06-21T23:03:27.324Z,21.78
2023-06-21T23:05:55.065Z,21.71
2023-06-21T23:08:22.115Z,21.62
2023-06-21T23:10:49.166Z,21.64
2023-06-21T23:13:16.853Z,21.64
2023-06-21T23:15:44.141Z,21.55
2023-06-21T23:18:11.158Z,21.58
2023-06-21T23:20:41.373Z,21.71
2023-06-21T23:23:15.508Z,21.72
2023-06-21T23:25:43.711Z,21.87
2023-06-21T23:28:11.124Z,21.83
2023-06-21T23:30:38.926Z,21.80
2023-06-21T23:33:09.249Z,21.66
2023-06-21T23:35:39.205Z,21.57
2023-06-21T23:38:07.350Z,21.23
2023-06-21T23:40:37.666Z,21.17
2023-06-21T23:43:08.131Z,21.14
2023-06-21T23:45:40.459Z,21.11
2023-06-21T23:48:07.854Z,21.09
2023-06-21T23:50:35.352Z,21.03
2023-06-21T23:53:02.440Z,21.02
2023-06-21T23:55:29.749Z,20.96
2023-06-21T23:57:57.211Z,20.97
